createdAt,value
2022-09-20T00:01:40.895Z,3.40
2022-09-20T00:04:14.424Z,8.70
2022-09-20T00:06:42.504Z,0.88
2022-09-20T00:09:10.507Z,1.95
2022-09-20T00:11:38.562Z,1.92
2022-09-20T00:14:08.568Z,0.80
2022-09-20T00:16:41.690Z,1.48
2022-09-20T00:19:16.067Z,4.32
2022-09-20T00:21:46.955Z,3.00
2022-09-20T00:24:15.097Z,0.88
2022-09-20T00:26:43.238Z,2.78
2022-09-20T00:29:11.313Z,0.85
2022-09-20T00:31:39.373Z,1.55
2022-09-20T00:34:07.574Z,1.48
2022-09-20T00:36:35.637Z,0.90
2022-09-20T00:39:07.316Z,1.83
2022-09-20T00:41:35.392Z,3.63
2022-09-20T00:44:42.360Z,0.80
2022-09-20T00:47:31.744Z,0.50
2022-09-20T00:50:29.834Z,3.75
2022-09-20T00:53:11.932Z,0.30
2022-09-20T00:55:56.449Z,0.50
2022-09-20T00:58:29.279Z,0.63
2022-09-20T01:00:59.296Z,0.77
2022-09-20T01:03:30.437Z,1.80
2022-09-20T01:06:03.924Z,2.10
2022-09-20T01:08:33.772Z,2.13
2022-09-20T01:11:04.501Z,5.63
2022-09-20T01:13:32.530Z,1.40
2022-09-20T01:16:02.007Z,1.73
2022-09-20T01:18:33.766Z,1.40
2022-09-20T01:21:04.894Z,1.42
2022-09-20T01:23:51.107Z,2.03
2022-09-20T01:26:40.239Z,1.40
2022-09-20T01:29:35.393Z,2.35
2022-09-20T01:32:08.091Z,5.63
2022-09-20T01:34:47.722Z,4.00
2022-09-20T01:37:27.633Z,3.45
2022-09-20T01:40:03.349Z,2.08
2022-09-20T01:42:39.020Z,2.47
2022-09-20T01:45:16.228Z,3.08
2022-09-20T01:48:11.403Z,4.15
2022-09-20T01:51:00.778Z,3.25
2022-09-20T01:53:40.017Z,26.85
2022-09-20T01:56:10.529Z,11.32
2022-09-20T01:59:23.163Z,2.35
2022-09-20T02:01:54.796Z,1.92
2022-09-20T02:04:57.847Z,5.50
2022-09-20T02:08:02.464Z,1.30
2022-09-20T02:11:04.861Z,2.55
2022-09-20T02:13:34.595Z,4.00
2022-09-20T02:16:11.856Z,3.53
2022-09-20T02:18:48.641Z,3.08
2022-09-20T02:21:38.652Z,11.30
2022-09-20T02:24:40.889Z,4.07
2022-09-20T02:27:31.910Z,9.82
2022-09-20T02:30:24.685Z,4.03
2022-09-20T02:33:10.949Z,11.05
2022-09-20T02:35:54.301Z,16.45
2022-09-20T02:39:04.423Z,16.70
2022-09-20T02:41:53.625Z,21.17
2022-09-20T02:44:45.521Z,20.27
2022-09-20T02:47:24.586Z,16.30
2022-09-20T02:50:16.737Z,7.90
2022-09-20T02:52:56.911Z,5.38
2022-09-20T02:55:33.537Z,8.23
2022-09-20T02:58:39.083Z,7.45
2022-09-20T03:01:26.229Z,6.05
2022-09-20T03:04:29.712Z,5.18
2022-09-20T03:07:06.350Z,5.03
2022-09-20T03:09:55.989Z,2.65
2022-09-20T03:13:09.504Z,1.95
2022-09-20T03:16:08.341Z,5.18
2022-09-20T03:18:42.420Z,4.03
2022-09-20T03:24:31.083Z,3.83
2022-09-20T03:27:42.623Z,7.25
2022-09-20T03:30:31.858Z,4.82
2022-09-20T03:33:13.536Z,4.72
2022-09-20T03:36:08.088Z,4.60
2022-09-20T03:38:51.075Z,5.18
2022-09-20T03:41:39.913Z,2.30
2022-09-20T03:44:29.146Z,6.35
2022-09-20T03:47:35.360Z,1.30
2022-09-20T03:50:33.669Z,2.22
2022-09-20T03:53:33.581Z,3.90
2022-09-20T03:56:07.466Z,6.50
2022-09-20T03:59:06.574Z,5.70
2022-09-20T04:02:00.904Z,3.90
2022-09-20T04:04:43.141Z,5.00
2022-09-20T04:07:32.654Z,2.25
2022-09-20T04:10:36.594Z,6.03
2022-09-20T04:13:47.094Z,5.47
2022-09-20T04:16:33.428Z,14.57
2022-09-20T04:19:38.058Z,2.40
2022-09-20T04:22:06.320Z,17.52
2022-09-20T04:24:56.668Z,7.47
2022-09-20T04:27:37.585Z,3.28
2022-09-20T04:30:07.801Z,4.72
2022-09-20T04:32:49.928Z,8.40
2022-09-20T04:35:46.272Z,7.88
2022-09-20T04:38:20.413Z,7.40
2022-09-20T04:41:22.163Z,2.42
2022-09-20T04:44:08.286Z,8.30
2022-09-20T04:46:56.036Z,20.42
2022-09-20T04:49:55.397Z,15.77
2022-09-20T04:53:00.230Z,7.28
2022-09-20T04:56:15.717Z,6.22
2022-09-20T04:58:55.329Z,4.43
2022-09-20T05:01:54.727Z,7.05
2022-09-20T05:05:09.863Z,6.43
2022-09-20T05:08:14.845Z,24.95
2022-09-20T05:11:09.814Z,7.22
2022-09-20T05:14:04.455Z,14.05
2022-09-20T05:19:37.402Z,11.88
2022-09-20T05:22:32.990Z,2.97
2022-09-20T05:25:12.717Z,3.85
2022-09-20T05:27:43.805Z,9.75
2022-09-20T05:30:32.947Z,2.45
2022-09-20T05:33:21.524Z,8.30
2022-09-20T05:36:14.072Z,12.82
2022-09-20T05:39:10.385Z,6.70
2022-09-20T05:41:44.204Z,20.25
2022-09-20T05:44:30.616Z,7.70
2022-09-20T05:47:19.496Z,3.53
2022-09-20T05:50:24.452Z,5.95
2022-09-20T05:55:47.899Z,11.38
2022-09-20T05:58:48.545Z,3.55
2022-09-20T06:01:24.906Z,2.70
2022-09-20T06:04:13.272Z,11.23
2022-09-20T06:07:08.644Z,17.17
2022-09-20T06:10:19.263Z,11.65
2022-09-20T06:13:03.431Z,5.28
2022-09-20T06:15:56.928Z,7.90
2022-09-20T06:18:35.356Z,6.30
2022-09-20T06:21:21.989Z,17.85
2022-09-20T06:23:50.401Z,10.63
2022-09-20T06:26:24.916Z,3.60
2022-09-20T06:28:59.175Z,4.43
2022-09-20T06:31:30.187Z,4.20
2022-09-20T06:34:11.137Z,6.03
2022-09-20T06:36:50.978Z,7.57
2022-09-20T06:39:44.580Z,5.68
2022-09-20T06:42:14.880Z,10.85
2022-09-20T06:44:42.934Z,5.10
2022-09-20T06:47:15.650Z,8.43
2022-09-20T06:49:46.042Z,15.73
2022-09-20T06:52:18.644Z,10.10
2022-09-20T06:54:48.705Z,6.57
2022-09-20T06:57:20.079Z,3.75
2022-09-20T06:59:48.110Z,9.48
2022-09-20T07:02:16.127Z,13.18
2022-09-20T07:04:47.088Z,3.55
2022-09-20T07:07:18.084Z,5.20
2022-09-20T07:09:46.538Z,3.22
2022-09-20T07:12:16.809Z,5.45
2022-09-20T07:14:44.831Z,10.55
2022-09-20T07:17:12.924Z,7.18
2022-09-20T07:19:40.924Z,3.30
2022-09-20T07:22:08.998Z,8.00
2022-09-20T07:24:39.899Z,9.80
2022-09-20T07:27:07.952Z,4.88
2022-09-20T07:29:38.929Z,9.13
2022-09-20T07:32:07.047Z,7.38
2022-09-20T07:34:37.646Z,3.35
2022-09-20T07:37:05.704Z,4.13
2022-09-20T07:39:36.601Z,6.15
2022-09-20T07:42:04.967Z,8.43
2022-09-20T07:44:33.126Z,3.90
2022-09-20T07:47:01.887Z,6.18
2022-09-20T07:49:32.447Z,12.93
2022-09-20T07:52:03.271Z,6.32
2022-09-20T07:54:34.303Z,5.65
2022-09-20T07:57:02.340Z,5.35
2022-09-20T07:59:33.278Z,14.13
2022-09-20T08:02:01.298Z,3.15
2022-09-20T08:04:29.360Z,5.60
2022-09-20T08:06:57.432Z,14.38
2022-09-20T08:09:28.032Z,4.30
2022-09-20T08:11:58.642Z,3.05
2022-09-20T08:14:26.677Z,2.42
2022-09-20T08:16:57.700Z,13.05
2022-09-20T08:19:25.756Z,5.25
2022-09-20T08:21:54.117Z,11.02
2022-09-20T08:24:24.406Z,7.40
2022-09-20T08:26:52.483Z,7.93
2022-09-20T08:29:23.377Z,10.02
2022-09-20T08:31:51.630Z,10.57
2022-09-20T08:34:20.031Z,3.85
2022-09-20T08:36:48.363Z,17.15
2022-09-20T08:42:36.761Z,5.13
2022-09-20T08:45:35.467Z,3.00
2022-09-20T08:48:07.467Z,3.80
2022-09-20T08:50:40.860Z,3.05
2022-09-20T08:53:20.935Z,2.65
2022-09-20T08:55:51.970Z,7.18
2022-09-20T08:58:20.076Z,7.60
2022-09-20T09:00:48.427Z,4.00
2022-09-20T09:03:19.336Z,9.75
2022-09-20T09:05:57.465Z,8.82
2022-09-20T09:08:37.915Z,11.60
2022-09-20T09:11:18.281Z,8.32
2022-09-20T09:13:49.079Z,6.03
2022-09-20T09:16:23.818Z,4.32
2022-09-20T09:18:54.979Z,9.77
2022-09-20T09:21:25.758Z,11.23
2022-09-20T09:24:04.268Z,4.88
2022-09-20T09:26:43.572Z,6.55
2022-09-20T09:29:20.566Z,5.40
2022-09-20T09:31:53.800Z,3.88
2022-09-20T09:34:30.207Z,4.75
2022-09-20T09:36:59.442Z,5.97
2022-09-20T09:39:35.907Z,3.72
2022-09-20T09:42:21.846Z,3.92
2022-09-20T09:44:49.884Z,2.75
2022-09-20T09:47:27.797Z,2.95
2022-09-20T09:50:02.867Z,15.18
2022-09-20T09:52:34.246Z,4.05
2022-09-20T09:55:05.609Z,6.85
2022-09-20T09:58:06.307Z,4.47
2022-09-20T10:00:37.218Z,24.23
2022-09-20T10:03:27.605Z,9.90
2022-09-20T10:06:19.628Z,7.13
2022-09-20T10:09:20.845Z,6.10
2022-09-20T10:11:54.567Z,3.00
2022-09-20T10:14:36.295Z,2.10
2022-09-20T10:17:36.495Z,2.47
2022-09-20T10:20:30.571Z,4.97
2022-09-20T10:23:58.693Z,12.13
2022-09-20T10:26:22.491Z,8.43
2022-09-20T10:29:05.779Z,7.88
2022-09-20T10:31:56.723Z,9.15
2022-09-20T10:34:39.608Z,3.67
2022-09-20T10:37:29.503Z,3.20
2022-09-20T10:40:18.867Z,5.25
2022-09-20T10:42:54.724Z,4.18
2022-09-20T10:46:08.688Z,7.28
2022-09-20T10:48:45.987Z,2.45
2022-09-20T10:51:16.808Z,5.88
2022-09-20T10:53:47.865Z,3.17
2022-09-20T10:56:21.447Z,4.28
2022-09-20T10:59:10.559Z,19.10
2022-09-20T11:01:43.649Z,6.75
2022-09-20T11:04:31.685Z,7.40
2022-09-20T11:07:19.055Z,3.53
2022-09-20T11:10:02.044Z,7.15
2022-09-20T11:12:40.791Z,4.45
2022-09-20T11:15:39.594Z,3.20
2022-09-20T11:18:07.627Z,4.32
2022-09-20T11:20:42.292Z,7.53
2022-09-20T11:23:18.096Z,8.32
2022-09-20T11:26:08.164Z,8.88
2022-09-20T11:28:46.852Z,6.65
2022-09-20T11:31:27.714Z,9.15
2022-09-20T11:33:59.928Z,3.97
2022-09-20T11:36:39.549Z,3.42
2022-09-20T11:39:24.537Z,4.05
2022-09-20T11:41:55.320Z,3.17
2022-09-20T11:44:26.429Z,4.45
2022-09-20T11:47:01.333Z,2.83
2022-09-20T11:49:54.505Z,10.80
2022-09-20T11:53:06.704Z,4.82
2022-09-20T11:55:39.944Z,12.10
2022-09-20T11:58:10.961Z,1.98
2022-09-20T12:00:44.155Z,4.53
2022-09-20T12:03:42.856Z,3.17
2022-09-20T12:06:32.773Z,3.30
2022-09-20T12:09:04.732Z,3.00
2022-09-20T12:11:38.480Z,9.32
2022-09-20T12:14:24.491Z,7.20
2022-09-20T12:16:55.784Z,4.40
2022-09-20T12:19:32.785Z,6.07
2022-09-20T12:22:00.744Z,2.50
2022-09-20T12:24:33.994Z,3.72
2022-09-20T12:27:23.036Z,1.90
2022-09-20T12:30:15.628Z,2.58
2022-09-20T12:32:52.002Z,2.80
2022-09-20T12:35:38.126Z,3.75
2022-09-20T12:38:21.161Z,6.20
2022-09-20T12:41:10.375Z,5.78
2022-09-20T12:43:53.282Z,3.20
2022-09-20T12:46:50.544Z,3.88
2022-09-20T12:49:52.868Z,4.03
2022-09-20T12:52:32.432Z,7.32
2022-09-20T12:55:04.726Z,4.45
2022-09-20T12:57:35.805Z,6.53
2022-09-20T13:00:09.543Z,4.38
2022-09-20T13:02:52.725Z,3.13
2022-09-20T13:05:44.365Z,5.63
2022-09-20T13:08:21.609Z,6.07
2022-09-20T13:10:58.617Z,8.98
2022-09-20T13:13:34.148Z,8.68
2022-09-20T13:16:07.233Z,4.82
2022-09-20T13:18:40.646Z,7.60
2022-09-20T13:21:09.283Z,4.25
2022-09-20T13:23:47.979Z,4.47
2022-09-20T13:26:17.630Z,145.10
2022-09-20T13:28:52.341Z,474.77
2022-09-20T13:31:24.112Z,1114.72
2022-09-20T13:33:52.541Z,1756.47
2022-09-20T13:36:27.767Z,1999.90
2022-09-20T13:38:58.046Z,1999.90
2022-09-20T13:41:29.560Z,1200.93
2022-09-20T13:44:00.957Z,1375.00
2022-09-20T13:46:34.232Z,1999.90
2022-09-20T13:49:14.689Z,849.55
2022-09-20T13:51:42.847Z,1916.38
2022-09-20T13:54:31.895Z,182.23
2022-09-20T13:57:13.011Z,476.58
2022-09-20T13:59:46.399Z,1999.90
2022-09-20T14:02:43.852Z,7.25
2022-09-20T14:05:18.994Z,5.90
2022-09-20T14:07:51.342Z,6.25
2022-09-20T14:10:28.606Z,5.30
2022-09-20T14:12:57.239Z,6.32
2022-09-20T14:15:27.208Z,3.85
2022-09-20T14:17:55.274Z,7.28
2022-09-20T14:20:23.360Z,10.95
2022-09-20T14:22:51.395Z,7.60
2022-09-20T14:25:28.337Z,6.53
2022-09-20T14:28:07.910Z,9.68
2022-09-20T14:30:38.420Z,5.25
2022-09-20T14:33:13.389Z,5.70
2022-09-20T14:35:48.755Z,4.03
2022-09-20T14:38:18.998Z,3.05
2022-09-20T14:40:49.074Z,5.97
2022-09-20T14:43:37.389Z,10.48
2022-09-20T14:46:19.224Z,7.68
2022-09-20T14:48:47.293Z,6.53
2022-09-20T14:51:18.137Z,9.15
2022-09-20T14:53:49.421Z,10.88
2022-09-20T14:56:26.939Z,14.18
2022-09-20T14:59:13.405Z,8.93
2022-09-20T15:01:47.265Z,7.47
2022-09-20T15:04:26.312Z,6.88
2022-09-20T15:06:57.805Z,9.07
2022-09-20T15:09:28.351Z,6.25
2022-09-20T15:12:07.921Z,3.70
2022-09-20T15:14:37.908Z,8.73
2022-09-20T15:17:06.487Z,6.65
2022-09-20T15:19:38.321Z,5.93
2022-09-20T15:22:06.412Z,2.60
2022-09-20T15:24:34.457Z,5.78
2022-09-20T15:27:05.734Z,1.80
2022-09-20T15:29:36.648Z,5.20
2022-09-20T15:32:04.792Z,6.50
2022-09-20T15:34:33.168Z,6.43
2022-09-20T15:37:01.161Z,5.38
2022-09-20T15:39:29.253Z,8.20
2022-09-20T15:41:57.344Z,3.97
2022-09-20T15:44:25.357Z,6.03
2022-09-20T15:46:56.363Z,5.85
2022-09-20T15:49:26.966Z,3.13
2022-09-20T15:51:55.023Z,8.40
2022-09-20T15:54:23.103Z,2.20
2022-09-20T15:56:51.167Z,3.15
2022-09-20T15:59:19.287Z,6.00
2022-09-20T16:01:49.793Z,2.95
2022-09-20T16:04:20.044Z,6.70
2022-09-20T16:06:51.919Z,2.85
2022-09-20T16:09:20.770Z,1.52
2022-09-20T16:11:49.441Z,4.35
2022-09-20T16:14:17.766Z,3.38
2022-09-20T16:16:48.469Z,9.18
2022-09-20T16:19:16.540Z,2.67
2022-09-20T16:21:46.670Z,2.80
2022-09-20T16:24:17.991Z,4.28
2022-09-20T16:26:46.046Z,5.35
2022-09-20T16:29:14.063Z,5.55
2022-09-20T16:31:49.966Z,6.30
2022-09-20T16:34:25.744Z,3.50
2022-09-20T16:36:56.052Z,2.80
2022-09-20T16:39:24.268Z,11.50
2022-09-20T16:41:59.365Z,3.33
2022-09-20T16:44:32.769Z,1.88
2022-09-20T16:47:01.101Z,1.60
2022-09-20T16:49:29.175Z,5.07
2022-09-20T16:52:00.180Z,1.98
2022-09-20T16:54:31.718Z,3.35
2022-09-20T16:57:00.150Z,4.60
2022-09-20T16:59:30.646Z,3.20
2022-09-20T17:01:58.718Z,4.50
2022-09-20T17:04:26.820Z,2.35
2022-09-20T17:06:57.240Z,1.83
2022-09-20T17:09:28.191Z,6.55
2022-09-20T17:11:58.858Z,5.18
2022-09-20T17:14:26.869Z,2.75
2022-09-20T17:16:54.854Z,1.80
2022-09-20T17:19:22.910Z,4.47
2022-09-20T17:21:53.198Z,3.20
2022-09-20T17:24:24.586Z,2.42
2022-09-20T17:26:55.291Z,13.13
2022-09-20T17:29:23.293Z,1.80
2022-09-20T17:31:55.773Z,5.90
2022-09-20T17:34:27.546Z,3.65
2022-09-20T17:36:55.674Z,1.85
2022-09-20T17:39:24.265Z,1.55
2022-09-20T17:41:55.731Z,4.90
2022-09-20T17:44:24.035Z,2.28
2022-09-20T17:46:52.351Z,2.95
2022-09-20T17:49:22.626Z,1.40
2022-09-20T17:51:52.903Z,3.67
2022-09-20T17:54:21.331Z,1.50
2022-09-20T17:56:51.679Z,2.35
2022-09-20T17:59:23.117Z,3.72
2022-09-20T18:01:52.335Z,1.55
2022-09-20T18:04:20.388Z,1.58
2022-09-20T18:06:53.531Z,4.78
2022-09-20T18:09:26.325Z,3.10
2022-09-20T18:11:58.370Z,1.75
2022-09-20T18:14:29.010Z,1.73
2022-09-20T18:16:59.342Z,2.00
2022-09-20T18:19:27.658Z,3.65
2022-09-20T18:21:55.688Z,4.35
2022-09-20T18:24:26.578Z,4.07
2022-09-20T18:26:54.595Z,1.95
2022-09-20T18:29:25.605Z,4.13
2022-09-20T18:31:55.027Z,6.03
2022-09-20T18:34:25.428Z,3.40
2022-09-20T18:36:57.733Z,3.92
2022-09-20T18:39:27.952Z,5.05
2022-09-20T18:41:58.338Z,1.83
2022-09-20T18:44:29.210Z,2.50
2022-09-20T18:46:57.229Z,1.33
2022-09-20T18:49:25.344Z,3.40
2022-09-20T18:51:53.420Z,1.73
2022-09-20T18:54:21.508Z,2.30
2022-09-20T18:56:53.562Z,2.38
2022-09-20T18:59:24.321Z,2.75
2022-09-20T19:01:52.427Z,2.42
2022-09-20T19:05:05.770Z,1.33
2022-09-20T19:07:41.692Z,4.50
2022-09-20T19:10:23.211Z,1.40
2022-09-20T19:13:14.974Z,1.92
2022-09-20T19:16:04.032Z,3.00
2022-09-20T19:18:52.128Z,1.33
2022-09-20T19:21:29.304Z,2.17
2022-09-20T19:24:03.542Z,5.65
2022-09-20T19:26:35.716Z,5.38
2022-09-20T19:29:04.136Z,3.75
2022-09-20T19:31:34.688Z,6.63
2022-09-20T19:34:12.785Z,4.45
2022-09-20T19:36:49.890Z,2.40
2022-09-20T19:39:49.974Z,1.35
2022-09-20T19:42:27.288Z,1.52
2022-09-20T19:44:58.332Z,2.50
2022-09-20T19:47:49.677Z,1.45
2022-09-20T19:50:20.456Z,1.98
2022-09-20T19:52:48.662Z,3.90
2022-09-20T19:55:17.207Z,1.80
2022-09-20T19:57:49.229Z,2.10
2022-09-20T20:00:20.735Z,1.02
2022-09-20T20:02:49.645Z,5.07
2022-09-20T20:05:23.378Z,9.50
2022-09-20T20:08:03.965Z,2.75
2022-09-20T20:11:16.482Z,1.40
2022-09-20T20:13:54.749Z,0.93
2022-09-20T20:16:37.989Z,5.03
2022-09-20T20:19:32.731Z,2.30
2022-09-20T20:22:24.685Z,4.13
2022-09-20T20:24:56.581Z,1.92
2022-09-20T20:27:25.704Z,1.55
2022-09-20T20:29:53.714Z,5.72
2022-09-20T20:32:21.875Z,1.35
2022-09-20T20:34:52.558Z,1.20
2022-09-20T20:37:20.653Z,2.95
2022-09-20T20:39:50.995Z,6.38
2022-09-20T20:42:18.997Z,1.85
2022-09-20T20:44:47.066Z,4.50
2022-09-20T20:47:15.117Z,3.35
2022-09-20T20:49:43.171Z,19.73
2022-09-20T20:52:11.230Z,0.93
2022-09-20T20:54:41.927Z,6.32
2022-09-20T20:57:10.450Z,9.85
2022-09-20T20:59:38.462Z,2.28
2022-09-20T21:02:09.669Z,2.25
2022-09-20T21:04:37.765Z,1.92
2022-09-20T21:07:08.853Z,0.93
2022-09-20T21:09:40.481Z,2.35
2022-09-20T21:12:08.683Z,1.48
2022-09-20T21:14:39.559Z,1.42
2022-09-20T21:17:09.909Z,1.90
2022-09-20T21:19:40.258Z,2.78
2022-09-20T21:22:08.304Z,3.42
2022-09-20T21:24:39.371Z,9.68
2022-09-20T21:27:07.892Z,0.82
2022-09-20T21:29:38.343Z,3.42
2022-09-20T21:32:06.359Z,1.05
2022-09-20T21:34:35.787Z,1.15
2022-09-20T21:37:03.815Z,3.03
2022-09-20T21:39:35.024Z,6.45
2022-09-20T21:42:03.989Z,5.15
2022-09-20T21:44:32.044Z,0.88
2022-09-20T21:47:00.013Z,2.13
2022-09-20T21:49:30.571Z,5.45
2022-09-20T21:51:58.631Z,0.95
2022-09-20T21:54:29.608Z,3.20
2022-09-20T21:56:57.597Z,1.60
2022-09-20T21:59:25.713Z,2.92
2022-09-20T22:01:58.667Z,1.50
2022-09-20T22:04:26.710Z,4.30
2022-09-20T22:06:54.702Z,2.83
2022-09-20T22:09:22.805Z,1.58
2022-09-20T22:11:50.900Z,2.13
2022-09-20T22:14:21.199Z,4.15
2022-09-20T22:16:53.078Z,3.00
2022-09-20T22:19:21.262Z,4.18
2022-09-20T22:21:50.718Z,10.63
2022-09-20T22:24:21.151Z,12.15
2022-09-20T22:26:53.693Z,1.40
2022-09-20T22:29:24.073Z,1.30
2022-09-20T22:31:52.227Z,1.35
2022-09-20T22:34:24.017Z,8.07
2022-09-20T22:36:52.289Z,4.30
2022-09-20T22:39:20.384Z,2.58
2022-09-20T22:41:57.093Z,1.05
2022-09-20T22:44:25.097Z,2.05
2022-09-20T22:46:55.866Z,0.93
2022-09-20T22:49:23.950Z,1.00
2022-09-20T22:51:56.850Z,2.33
2022-09-20T22:54:24.914Z,6.47
2022-09-20T22:56:55.828Z,6.38
2022-09-20T22:59:26.750Z,2.80
2022-09-20T23:01:57.697Z,1.65
2022-09-20T23:04:28.040Z,1.05
2022-09-20T23:06:58.536Z,1.75
2022-09-20T23:09:27.892Z,0.68
2022-09-20T23:11:56.225Z,3.08
2022-09-20T23:14:27.161Z,11.07
2022-09-20T23:16:55.226Z,6.93
2022-09-20T23:19:23.300Z,3.03
2022-09-20T23:21:51.421Z,1.95
2022-09-20T23:24:19.504Z,1.30
2022-09-20T23:26:47.612Z,9.93
2022-09-20T23:29:17.149Z,1.00
2022-09-20T23:31:47.838Z,0.80
2022-09-20T23:34:17.415Z,6.10
2022-09-20T23:36:46.391Z,4.35
2022-09-20T23:39:15.096Z,0.68
2022-09-20T23:41:45.930Z,2.20
2022-09-20T23:44:18.101Z,1.00
2022-09-20T23:46:51.379Z,7.60
2022-09-20T23:49:19.484Z,5.57
2022-09-20T23:51:47.539Z,1.25
2022-09-20T23:54:15.599Z,7.53
2022-09-20T23:56:43.665Z,3.13
2022-09-20T23:59:11.660Z,4.78
